createdAt,value
2022-10-26T00:01:18.889Z,15.58
2022-10-26T00:03:48.039Z,15.65
2022-10-26T00:06:19.197Z,15.72
2022-10-26T00:08:48.314Z,15.83
2022-10-26T00:11:17.616Z,15.74
2022-10-26T00:13:46.761Z,15.80
2022-10-26T00:16:17.281Z,15.71
2022-10-26T00:18:45.988Z,15.71
2022-10-26T00:21:14.773Z,15.57
2022-10-26T00:23:44.472Z,15.69
2022-10-26T00:26:13.421Z,15.65
2022-10-26T00:28:41.743Z,15.68
2022-10-26T00:31:14.314Z,15.78
2022-10-26T00:33:43.114Z,15.58
2022-10-26T00:36:14.009Z,15.41
2022-10-26T00:38:46.223Z,15.14
2022-10-26T00:41:16.191Z,15.25
2022-10-26T00:43:44.398Z,15.63
2022-10-26T00:46:17.303Z,15.78
2022-10-26T00:48:48.510Z,15.83
2022-10-26T00:51:23.934Z,15.38
2022-10-26T00:53:55.489Z,15.56
2022-10-26T00:56:24.613Z,15.51
2022-10-26T00:58:53.578Z,15.39
2022-10-26T01:01:22.074Z,14.92
2022-10-26T01:03:51.061Z,14.61
2022-10-26T01:06:20.234Z,14.47
2022-10-26T01:08:49.741Z,14.83
2022-10-26T01:11:19.967Z,14.97
2022-10-26T01:13:50.017Z,15.23
2022-10-26T01:16:32.399Z,15.33
2022-10-26T01:19:23.615Z,15.33
2022-10-26T01:21:57.556Z,15.22
2022-10-26T01:24:47.669Z,15.28
2022-10-26T01:27:35.563Z,15.19
2022-10-26T01:30:25.224Z,14.96
2022-10-26T01:33:14.565Z,14.76
2022-10-26T01:35:50.069Z,15.10
2022-10-26T01:38:27.153Z,15.24
2022-10-26T01:41:03.773Z,15.28
2022-10-26T01:43:35.789Z,15.41
2022-10-26T01:46:07.666Z,15.32
2022-10-26T01:48:37.784Z,15.38
2022-10-26T01:51:07.609Z,15.08
2022-10-26T01:53:35.899Z,14.28
2022-10-26T01:56:04.446Z,13.83
2022-10-26T01:58:57.877Z,14.47
2022-10-26T02:01:55.332Z,14.53
2022-10-26T02:04:36.780Z,13.84
2022-10-26T02:07:12.618Z,14.14
2022-10-26T02:09:54.974Z,14.56
2022-10-26T02:12:31.741Z,14.87
2022-10-26T02:15:06.389Z,14.88
2022-10-26T02:17:44.321Z,14.58
2022-10-26T02:20:18.201Z,13.75
2022-10-26T02:22:49.925Z,14.06
2022-10-26T02:25:21.877Z,14.49
2022-10-26T02:27:54.522Z,14.35
2022-10-26T02:30:23.189Z,14.47
2022-10-26T02:32:55.793Z,14.12
2022-10-26T02:35:30.762Z,14.19
2022-10-26T02:38:01.473Z,14.13
2022-10-26T02:40:31.170Z,14.12
2022-10-26T02:43:02.121Z,14.06
2022-10-26T02:45:36.809Z,14.20
2022-10-26T02:48:07.444Z,14.27
2022-10-26T02:50:44.934Z,14.29
2022-10-26T02:53:23.489Z,14.12
2022-10-26T02:55:52.725Z,14.01
2022-10-26T02:58:26.337Z,13.71
2022-10-26T03:00:55.236Z,13.52
2022-10-26T03:03:25.034Z,12.40
2022-10-26T03:05:53.457Z,13.75
2022-10-26T03:08:21.805Z,13.98
2022-10-26T03:10:50.056Z,13.90
2022-10-26T03:13:18.318Z,13.95
2022-10-26T03:15:46.663Z,14.19
2022-10-26T03:18:14.866Z,14.04
2022-10-26T03:20:46.719Z,13.79
2022-10-26T03:23:14.911Z,13.99
2022-10-26T03:25:43.162Z,13.81
2022-10-26T03:28:11.445Z,13.93
2022-10-26T03:30:39.681Z,13.82
2022-10-26T03:33:08.081Z,13.83
2022-10-26T03:35:36.366Z,13.98
2022-10-26T03:38:05.993Z,13.87
2022-10-26T03:40:35.712Z,13.51
2022-10-26T03:43:03.996Z,13.14
2022-10-26T03:45:32.334Z,13.54
2022-10-26T03:48:00.540Z,13.73
2022-10-26T03:50:28.828Z,13.78
2022-10-26T03:52:56.976Z,13.89
2022-10-26T03:55:26.561Z,13.88
2022-10-26T03:57:54.824Z,13.97
2022-10-26T04:00:23.156Z,14.00
2022-10-26T04:02:56.786Z,13.22
2022-10-26T04:05:25.857Z,13.53
2022-10-26T04:07:54.763Z,13.77
2022-10-26T04:10:23.213Z,13.63
2022-10-26T04:12:52.892Z,13.84
2022-10-26T04:15:21.585Z,13.70
2022-10-26T04:17:50.190Z,13.50
2022-10-26T04:20:18.689Z,12.65
2022-10-26T04:22:46.853Z,12.15
2022-10-26T04:25:15.103Z,11.86
2022-10-26T04:27:43.434Z,12.35
2022-10-26T04:30:14.475Z,12.70
2022-10-26T04:32:42.739Z,13.21
2022-10-26T04:35:13.299Z,13.24
2022-10-26T04:37:43.783Z,13.46
2022-10-26T04:40:12.845Z,13.49
2022-10-26T04:42:44.837Z,13.41
2022-10-26T04:45:15.957Z,13.52
2022-10-26T04:47:44.626Z,13.38
2022-10-26T04:50:14.593Z,13.38
2022-10-26T04:52:42.831Z,13.44
2022-10-26T04:55:11.221Z,13.50
2022-10-26T04:57:39.473Z,13.52
2022-10-26T05:00:08.597Z,13.59
2022-10-26T05:02:38.244Z,13.68
2022-10-26T05:05:08.841Z,13.69
2022-10-26T05:07:39.562Z,13.61
2022-10-26T05:10:08.743Z,13.38
2022-10-26T05:12:37.040Z,12.89
2022-10-26T05:15:08.499Z,13.07
2022-10-26T05:17:38.380Z,13.17
2022-10-26T05:20:10.960Z,13.33
2022-10-26T05:22:40.320Z,13.63
2022-10-26T05:25:09.463Z,13.81
2022-10-26T05:27:37.744Z,13.83
2022-10-26T05:32:41.022Z,14.06
2022-10-26T05:35:09.752Z,14.06
2022-10-26T05:37:38.017Z,14.08
2022-10-26T05:40:07.452Z,14.39
2022-10-26T05:42:35.748Z,14.76
2022-10-26T05:45:03.964Z,14.85
2022-10-26T05:47:32.308Z,14.89
2022-10-26T05:50:01.988Z,14.92
2022-10-26T05:52:30.233Z,14.89
2022-10-26T05:54:58.517Z,14.81
2022-10-26T05:57:27.425Z,15.29
2022-10-26T05:59:56.256Z,15.64
2022-10-26T06:02:34.133Z,15.84
2022-10-26T06:05:06.288Z,16.19
2022-10-26T06:07:35.133Z,16.61
2022-10-26T06:10:03.921Z,16.98
2022-10-26T06:12:32.784Z,16.97
2022-10-26T06:15:01.652Z,17.18
2022-10-26T06:17:40.588Z,17.26
2022-10-26T06:20:30.373Z,17.72
2022-10-26T06:23:11.826Z,17.84
2022-10-26T06:25:48.216Z,18.04
2022-10-26T06:28:28.653Z,17.86
2022-10-26T06:30:58.683Z,17.43
2022-10-26T06:33:30.267Z,18.02
2022-10-26T06:36:13.580Z,18.15
2022-10-26T06:38:44.570Z,18.33
2022-10-26T06:41:16.487Z,18.88
2022-10-26T06:43:45.624Z,19.31
2022-10-26T06:46:24.009Z,19.81
2022-10-26T06:48:59.673Z,21.22
2022-10-26T06:51:32.130Z,21.92
2022-10-26T06:54:06.393Z,21.22
2022-10-26T06:56:36.255Z,20.02
2022-10-26T06:59:14.200Z,19.19
2022-10-26T07:01:42.554Z,19.12
2022-10-26T07:04:10.916Z,18.80
2022-10-26T07:06:40.646Z,18.78
2022-10-26T07:09:08.917Z,18.56
2022-10-26T07:11:37.161Z,18.97
2022-10-26T07:14:05.450Z,20.50
2022-10-26T07:16:33.765Z,20.51
2022-10-26T07:19:02.012Z,21.14
2022-10-26T07:21:30.243Z,21.43
2022-10-26T07:23:59.946Z,21.94
2022-10-26T07:26:28.458Z,22.55
2022-10-26T07:28:57.627Z,22.75
2022-10-26T07:31:26.646Z,22.60
2022-10-26T07:33:55.053Z,23.32
2022-10-26T07:36:23.618Z,23.47
2022-10-26T07:38:54.096Z,23.79
2022-10-26T07:41:23.696Z,24.44
2022-10-26T07:43:51.954Z,25.23
2022-10-26T07:46:20.194Z,24.79
2022-10-26T07:48:48.444Z,24.78
2022-10-26T07:51:16.770Z,25.32
2022-10-26T07:53:45.084Z,25.79
2022-10-26T07:56:13.698Z,25.55
2022-10-26T07:58:43.328Z,26.28
2022-10-26T08:01:13.556Z,26.16
2022-10-26T08:03:42.443Z,26.74
2022-10-26T08:06:11.119Z,26.15
2022-10-26T08:08:42.446Z,26.64
2022-10-26T08:11:13.345Z,26.51
2022-10-26T08:13:43.019Z,26.89
2022-10-26T08:16:11.462Z,26.75
2022-10-26T08:18:39.902Z,26.84
2022-10-26T08:21:13.658Z,27.15
2022-10-26T08:23:46.436Z,27.82
2022-10-26T08:26:14.741Z,27.74
2022-10-26T08:28:44.329Z,28.37
2022-10-26T08:31:12.692Z,28.30
2022-10-26T08:33:44.865Z,28.63
2022-10-26T08:36:14.795Z,28.92
2022-10-26T08:38:43.044Z,28.66
2022-10-26T08:41:11.761Z,28.56
2022-10-26T08:43:46.655Z,29.06
2022-10-26T08:46:18.759Z,29.09
2022-10-26T08:48:51.537Z,29.81
2022-10-26T08:51:24.625Z,29.64
2022-10-26T08:53:58.413Z,29.14
2022-10-26T08:56:28.820Z,29.56
2022-10-26T08:59:02.729Z,30.04
2022-10-26T09:01:33.484Z,29.92
2022-10-26T09:04:04.102Z,29.69
2022-10-26T09:06:43.241Z,30.13
2022-10-26T09:09:18.977Z,30.87
2022-10-26T09:12:00.970Z,30.65
2022-10-26T09:14:43.598Z,30.21
2022-10-26T09:17:20.803Z,30.93
2022-10-26T09:20:27.841Z,31.23
2022-10-26T09:23:02.355Z,31.24
2022-10-26T09:25:39.633Z,31.39
2022-10-26T09:28:15.605Z,32.20
2022-10-26T09:30:47.490Z,32.44
2022-10-26T09:33:18.262Z,31.62
2022-10-26T09:35:51.322Z,32.58
2022-10-26T09:38:26.448Z,32.89
2022-10-26T09:41:01.204Z,33.27
2022-10-26T09:43:34.411Z,32.76
2022-10-26T09:46:04.199Z,33.19
2022-10-26T09:48:38.400Z,33.42
2022-10-26T09:51:07.067Z,32.96
2022-10-26T09:53:35.313Z,32.79
2022-10-26T09:56:08.164Z,33.41
2022-10-26T09:58:41.981Z,33.76
2022-10-26T10:01:22.931Z,35.48
2022-10-26T10:04:11.713Z,34.19
2022-10-26T10:06:40.113Z,35.05
2022-10-26T10:09:12.337Z,34.78
2022-10-26T10:11:41.693Z,34.30
2022-10-26T10:14:15.121Z,34.17
2022-10-26T10:16:53.089Z,35.12
2022-10-26T10:19:25.976Z,34.67
2022-10-26T10:21:58.176Z,35.35
2022-10-26T10:24:29.148Z,34.71
2022-10-26T10:27:00.122Z,34.98
2022-10-26T10:29:28.824Z,35.39
2022-10-26T10:32:00.196Z,35.59
2022-10-26T10:34:29.181Z,35.90
2022-10-26T10:36:57.839Z,36.86
2022-10-26T10:39:37.274Z,37.26
2022-10-26T10:42:07.755Z,37.06
2022-10-26T10:44:36.384Z,36.01
2022-10-26T10:47:07.854Z,35.80
2022-10-26T10:49:36.494Z,36.33
2022-10-26T10:52:05.005Z,36.53
2022-10-26T10:54:36.081Z,36.71
2022-10-26T10:57:16.534Z,37.37
2022-10-26T10:59:52.026Z,36.10
2022-10-26T11:03:04.074Z,35.96
2022-10-26T11:05:48.197Z,36.44
2022-10-26T11:08:22.392Z,37.22
2022-10-26T11:10:55.151Z,37.98
2022-10-26T11:13:28.425Z,36.94
2022-10-26T11:16:03.018Z,38.10
2022-10-26T11:18:37.612Z,37.70
2022-10-26T11:21:16.419Z,37.52
2022-10-26T11:23:49.792Z,36.98
2022-10-26T11:26:26.338Z,36.01
2022-10-26T11:29:01.089Z,34.78
2022-10-26T11:31:33.729Z,36.56
2022-10-26T11:34:19.184Z,36.76
2022-10-26T11:36:54.282Z,36.66
2022-10-26T11:39:30.280Z,36.61
2022-10-26T11:42:07.273Z,36.56
2022-10-26T11:44:41.372Z,36.58
2022-10-26T11:47:16.293Z,37.28
2022-10-26T11:49:51.541Z,37.59
2022-10-26T11:52:23.844Z,37.51
2022-10-26T11:54:55.572Z,38.03
2022-10-26T11:57:25.277Z,37.76
2022-10-26T11:59:56.373Z,35.76
2022-10-26T12:02:26.244Z,36.39
2022-10-26T12:05:01.186Z,35.83
2022-10-26T12:07:33.377Z,35.06
2022-10-26T12:10:03.422Z,35.53
2022-10-26T12:12:39.187Z,36.95
2022-10-26T12:15:19.485Z,37.12
2022-10-26T12:17:54.135Z,38.02
2022-10-26T12:21:07.895Z,37.80
2022-10-26T12:23:41.023Z,36.76
2022-10-26T12:26:43.032Z,35.30
2022-10-26T12:29:30.167Z,34.87
2022-10-26T12:31:58.847Z,35.49
2022-10-26T12:35:00.909Z,34.87
2022-10-26T12:37:37.067Z,34.63
2022-10-26T12:40:40.991Z,34.13
2022-10-26T12:43:38.905Z,35.32
2022-10-26T12:46:43.637Z,35.14
2022-10-26T12:49:57.401Z,34.51
2022-10-26T12:52:52.373Z,35.58
2022-10-26T12:56:05.564Z,35.26
2022-10-26T12:59:19.593Z,35.00
2022-10-26T13:02:22.898Z,34.05
2022-10-26T13:05:35.835Z,34.90
2022-10-26T13:08:08.354Z,34.04
2022-10-26T13:10:38.466Z,34.38
2022-10-26T13:13:09.022Z,34.43
2022-10-26T13:15:42.238Z,34.88
2022-10-26T13:18:12.208Z,34.83
2022-10-26T13:20:54.684Z,35.72
2022-10-26T13:23:27.648Z,35.58
2022-10-26T13:26:09.559Z,36.20
2022-10-26T13:28:50.263Z,35.35
2022-10-26T13:31:56.583Z,34.79
2022-10-26T13:34:27.764Z,35.17
2022-10-26T13:37:08.716Z,34.92
2022-10-26T13:39:41.852Z,34.11
2022-10-26T13:42:17.008Z,33.64
2022-10-26T13:44:52.588Z,34.14
2022-10-26T13:47:29.071Z,33.50
2022-10-26T13:50:01.052Z,33.74
2022-10-26T13:52:34.235Z,33.34
2022-10-26T13:55:10.379Z,31.87
2022-10-26T13:57:43.538Z,31.30
2022-10-26T14:00:18.846Z,31.60
2022-10-26T14:02:47.758Z,30.29
2022-10-26T14:05:18.775Z,31.36
2022-10-26T14:07:52.689Z,31.24
2022-10-26T14:10:29.513Z,30.61
2022-10-26T14:12:58.985Z,30.09
2022-10-26T14:15:31.489Z,30.22
2022-10-26T14:18:03.147Z,30.35
2022-10-26T14:20:33.444Z,29.81
2022-10-26T14:23:01.717Z,29.73
2022-10-26T14:25:42.142Z,29.16
2022-10-26T14:28:23.682Z,27.78
2022-10-26T14:30:52.572Z,27.90
2022-10-26T14:33:24.349Z,27.85
2022-10-26T14:35:53.103Z,27.55
2022-10-26T14:38:26.563Z,27.21
2022-10-26T14:40:57.731Z,27.04
2022-10-26T14:43:27.389Z,26.89
2022-10-26T14:45:57.433Z,26.43
2022-10-26T14:48:30.144Z,25.97
2022-10-26T14:51:07.933Z,25.95
2022-10-26T14:53:39.214Z,25.60
2022-10-26T14:56:22.844Z,26.26
2022-10-26T14:58:51.598Z,26.04
2022-10-26T15:01:36.356Z,25.42
2022-10-26T15:04:07.251Z,25.34
2022-10-26T15:06:41.161Z,25.22
2022-10-26T15:09:33.212Z,25.30
2022-10-26T15:12:06.017Z,25.17
2022-10-26T15:14:35.820Z,25.18
2022-10-26T15:17:04.514Z,24.99
2022-10-26T15:19:32.985Z,24.90
2022-10-26T15:22:01.330Z,24.56
2022-10-26T15:24:37.460Z,24.83
2022-10-26T15:27:17.412Z,25.03
2022-10-26T15:29:47.145Z,24.93
2022-10-26T15:32:28.483Z,24.78
2022-10-26T15:35:22.197Z,25.11
2022-10-26T15:37:51.785Z,24.77
2022-10-26T15:40:20.531Z,24.93
2022-10-26T15:42:52.160Z,23.82
2022-10-26T15:45:23.174Z,23.55
2022-10-26T15:47:53.349Z,23.35
2022-10-26T15:50:24.176Z,23.32
2022-10-26T15:52:57.824Z,23.52
2022-10-26T15:55:26.101Z,23.45
2022-10-26T15:57:55.744Z,23.73
2022-10-26T16:00:24.169Z,23.78
2022-10-26T16:02:52.452Z,23.75
2022-10-26T16:05:20.770Z,23.74
2022-10-26T16:07:49.793Z,23.50
2022-10-26T16:10:22.920Z,23.57
2022-10-26T16:12:51.312Z,23.39
2022-10-26T16:15:23.147Z,23.27
2022-10-26T16:17:52.471Z,23.25
2022-10-26T16:20:23.982Z,23.13
2022-10-26T16:22:53.810Z,23.05
2022-10-26T16:25:24.492Z,22.45
2022-10-26T16:27:54.159Z,22.60
2022-10-26T16:30:29.449Z,22.57
2022-10-26T16:32:58.885Z,22.03
2022-10-26T16:35:27.240Z,22.20
2022-10-26T16:37:55.541Z,22.20
2022-10-26T16:40:23.865Z,22.40
2022-10-26T16:42:52.550Z,22.32
2022-10-26T16:45:20.981Z,21.32
2022-10-26T16:47:51.001Z,21.41
2022-10-26T16:50:22.228Z,21.60
2022-10-26T16:52:50.484Z,21.78
2022-10-26T16:55:24.585Z,21.78
2022-10-26T16:57:53.068Z,21.77
2022-10-26T17:00:21.450Z,21.67
2022-10-26T17:02:51.116Z,21.22
2022-10-26T17:05:19.361Z,20.95
2022-10-26T17:07:48.855Z,20.81
2022-10-26T17:10:17.550Z,20.51
2022-10-26T17:12:45.812Z,19.97
2022-10-26T17:15:17.255Z,19.76
2022-10-26T17:17:48.144Z,19.76
2022-10-26T17:20:18.395Z,20.29
2022-10-26T17:22:46.739Z,20.56
2022-10-26T17:25:15.116Z,20.30
2022-10-26T17:27:46.441Z,20.51
2022-10-26T17:30:15.881Z,20.37
2022-10-26T17:32:44.337Z,19.95
2022-10-26T17:35:13.536Z,19.94
2022-10-26T17:37:43.362Z,19.71
2022-10-26T17:40:12.651Z,19.22
2022-10-26T17:42:41.372Z,19.41
2022-10-26T17:45:11.234Z,19.88
2022-10-26T17:47:40.028Z,19.50
2022-10-26T17:50:09.474Z,18.95
2022-10-26T17:52:38.340Z,18.96
2022-10-26T17:55:08.551Z,19.02
2022-10-26T17:57:37.629Z,18.98
2022-10-26T18:00:06.575Z,18.42
2022-10-26T18:02:37.711Z,19.01
2022-10-26T18:05:07.595Z,18.78
2022-10-26T18:07:37.156Z,18.62
2022-10-26T18:10:19.607Z,18.45
2022-10-26T18:12:55.925Z,18.62
2022-10-26T18:15:25.176Z,18.31
2022-10-26T18:17:58.187Z,18.67
2022-10-26T18:20:28.942Z,18.67
2022-10-26T18:22:57.765Z,18.56
2022-10-26T18:25:27.612Z,18.72
2022-10-26T18:27:56.342Z,19.13
2022-10-26T18:30:24.705Z,19.51
2022-10-26T18:32:54.085Z,19.61
2022-10-26T18:35:23.361Z,19.69
2022-10-26T18:37:51.826Z,19.53
2022-10-26T18:40:20.429Z,19.24
2022-10-26T18:42:50.070Z,19.66
2022-10-26T18:45:18.490Z,19.26
2022-10-26T18:47:46.736Z,19.44
2022-10-26T18:50:15.195Z,19.50
2022-10-26T18:52:43.457Z,19.20
2022-10-26T18:55:11.801Z,19.06
2022-10-26T18:57:40.233Z,19.17
2022-10-26T19:00:11.332Z,18.85
2022-10-26T19:02:39.583Z,18.63
2022-10-26T19:05:08.853Z,19.07
2022-10-26T19:07:39.165Z,18.96
2022-10-26T19:10:08.723Z,18.99
2022-10-26T19:12:36.996Z,19.12
2022-10-26T19:15:05.818Z,19.22
2022-10-26T19:17:35.686Z,19.20
2022-10-26T19:20:04.165Z,19.33
2022-10-26T19:22:32.428Z,19.17
2022-10-26T19:25:00.643Z,18.22
2022-10-26T19:27:28.869Z,18.38
2022-10-26T19:29:57.160Z,18.64
2022-10-26T19:32:28.331Z,18.86
2022-10-26T19:34:58.038Z,17.98
2022-10-26T19:37:29.081Z,17.43
2022-10-26T19:39:57.402Z,17.64
2022-10-26T19:42:25.643Z,17.51
2022-10-26T19:44:53.944Z,17.35
2022-10-26T19:47:22.216Z,17.45
2022-10-26T19:49:50.463Z,17.19
2022-10-26T19:52:20.183Z,17.19
2022-10-26T19:54:48.527Z,17.17
2022-10-26T19:57:16.904Z,17.27
2022-10-26T19:59:45.203Z,17.32
2022-10-26T20:02:13.466Z,17.65
2022-10-26T20:04:41.660Z,17.69
2022-10-26T20:07:10.003Z,17.63
2022-10-26T20:09:39.734Z,17.65
2022-10-26T20:12:12.742Z,18.07
2022-10-26T20:14:41.296Z,18.14
2022-10-26T20:17:09.508Z,18.36
2022-10-26T20:19:38.297Z,18.32
2022-10-26T20:22:06.566Z,18.45
2022-10-26T20:24:34.863Z,18.26
2022-10-26T20:27:04.965Z,18.09
2022-10-26T20:29:33.257Z,18.11
2022-10-26T20:32:01.638Z,17.93
2022-10-26T20:34:29.970Z,17.97
2022-10-26T20:36:58.180Z,17.91
2022-10-26T20:39:27.110Z,17.99
2022-10-26T20:41:55.943Z,18.05
2022-10-26T20:44:31.317Z,17.91
2022-10-26T20:47:01.125Z,17.97
2022-10-26T20:49:29.852Z,17.95
2022-10-26T20:52:21.885Z,17.93
2022-10-26T20:54:56.745Z,17.88
2022-10-26T20:57:33.055Z,17.88
2022-10-26T21:00:06.183Z,17.84
2022-10-26T21:02:34.577Z,17.81
2022-10-26T21:05:02.845Z,17.76
2022-10-26T21:07:31.043Z,17.63
2022-10-26T21:09:59.439Z,17.37
2022-10-26T21:12:27.704Z,17.51
2022-10-26T21:14:55.988Z,17.58
2022-10-26T21:17:25.734Z,17.53
2022-10-26T21:19:54.107Z,17.52
2022-10-26T21:22:23.008Z,17.46
2022-10-26T21:24:51.192Z,17.39
2022-10-26T21:27:19.497Z,17.34
2022-10-26T21:29:47.751Z,17.29
2022-10-26T21:32:16.233Z,17.18
2022-10-26T21:34:45.898Z,17.18
2022-10-26T21:37:14.202Z,17.08
2022-10-26T21:39:42.460Z,17.11
2022-10-26T21:42:10.957Z,17.05
2022-10-26T21:44:41.460Z,15.79
2022-10-26T21:47:10.349Z,16.99
2022-10-26T21:49:38.735Z,17.03
2022-10-26T21:52:08.952Z,16.91
2022-10-26T21:54:37.265Z,16.78
2022-10-26T21:57:05.717Z,16.28
2022-10-26T21:59:34.008Z,15.99
2022-10-26T22:02:02.537Z,16.29
2022-10-26T22:04:30.981Z,16.48
2022-10-26T22:06:59.251Z,16.38
2022-10-26T22:09:28.969Z,16.32
2022-10-26T22:11:57.352Z,16.34
2022-10-26T22:14:25.744Z,16.40
2022-10-26T22:16:54.028Z,16.45
2022-10-26T22:19:24.300Z,16.37
2022-10-26T22:21:52.592Z,16.39
2022-10-26T22:24:20.764Z,16.19
2022-10-26T22:26:50.484Z,16.31
2022-10-26T22:29:18.916Z,16.32
2022-10-26T22:31:47.136Z,16.34
2022-10-26T22:34:16.819Z,16.38
2022-10-26T22:36:45.317Z,16.46
2022-10-26T22:39:13.849Z,16.57
2022-10-26T22:41:42.108Z,16.29
2022-10-26T22:44:11.791Z,16.19
2022-10-26T22:46:40.117Z,15.95
2022-10-26T22:49:08.333Z,16.29
2022-10-26T22:51:36.699Z,16.19
2022-10-26T22:54:06.348Z,16.13
2022-10-26T22:56:36.231Z,16.13
2022-10-26T22:59:04.801Z,16.14
2022-10-26T23:01:37.809Z,16.07
2022-10-26T23:04:06.578Z,16.30
2022-10-26T23:06:35.356Z,16.43
2022-10-26T23:09:03.652Z,16.35
2022-10-26T23:11:32.057Z,16.18
2022-10-26T23:14:01.609Z,16.13
2022-10-26T23:16:30.985Z,16.13
2022-10-26T23:19:00.972Z,16.14
2022-10-26T23:21:29.759Z,16.10
2022-10-26T23:23:58.653Z,16.03
2022-10-26T23:26:26.964Z,16.08
2022-10-26T23:28:55.238Z,16.05
2022-10-26T23:31:25.747Z,16.02
2022-10-26T23:33:55.453Z,15.90
2022-10-26T23:36:25.287Z,15.88
2022-10-26T23:38:53.595Z,15.80
2022-10-26T23:41:21.888Z,15.77
2022-10-26T23:43:50.108Z,15.65
2022-10-26T23:46:18.493Z,15.67
2022-10-26T23:48:46.767Z,15.42
2022-10-26T23:51:15.072Z,15.53
2022-10-26T23:53:44.731Z,15.58
2022-10-26T23:56:12.917Z,15.65
2022-10-26T23:58:41.208Z,15.58
